sensor_id;sensor_type;location;lat;lon;timestamp;P1;durP1;ratioP1;P2;durP2;ratioP2
20725;SDS011;10524;48.132;8.518;2023-05-10T00:01:56;0.60;;;0.50;;
20725;SDS011;10524;48.132;8.518;2023-05-10T00:04:21;0.40;;;0.40;;
20725;SDS011;10524;48.132;8.518;2023-05-10T00:06:47;1.15;;;0.60;;
20725;SDS011;10524;48.132;8.518;2023-05-10T00:09:13;0.50;;;0.50;;
20725;SDS011;10524;48.132;8.518;2023-05-10T00:11:39;1.15;;;0.50;;
20725;SDS011;10524;48.132;8.518;2023-05-10T00:14:04;0.60;;;0.60;;
20725;SDS011;10524;48.132;8.518;2023-05-10T00:16:30;2.97;;;0.60;;
20725;SDS011;10524;48.132;8.518;2023-05-10T00:18:56;0.55;;;0.52;;
20725;SDS011;10524;48.132;8.518;2023-05-10T00:21:21;0.77;;;0.60;;
20725;SDS011;10524;48.132;8.518;2023-05-10T00:23:47;0.85;;;0.60;;
20725;SDS011;10524;48.132;8.518;2023-05-10T00:26:13;1.08;;;0.57;;
20725;SDS011;10524;48.132;8.518;2023-05-10T00:28:38;0.88;;;0.60;;
20725;SDS011;10524;48.132;8.518;2023-05-10T00:31:04;0.60;;;0.60;;
20725;SDS011;10524;48.132;8.518;2023-05-10T00:33:30;0.60;;;0.60;;
20725;SDS011;10524;48.132;8.518;2023-05-10T00:35:55;0.65;;;0.65;;
20725;SDS011;10524;48.132;8.518;2023-05-10T00:38:21;0.80;;;0.60;;
20725;SDS011;10524;48.132;8.518;2023-05-10T00:40:47;1.55;;;0.70;;
20725;SDS011;10524;48.132;8.518;2023-05-10T00:43:12;1.27;;;0.80;;
20725;SDS011;10524;48.132;8.518;2023-05-10T00:45:38;1.50;;;0.50;;
20725;SDS011;10524;48.132;8.518;2023-05-10T00:48:05;1.38;;;0.70;;
20725;SDS011;10524;48.132;8.518;2023-05-10T00:50:31;0.60;;;0.60;;
20725;SDS011;10524;48.132;8.518;2023-05-10T00:52:58;2.35;;;0.60;;
20725;SDS011;10524;48.132;8.518;2023-05-10T00:55:25;0.60;;;0.50;;
20725;SDS011;10524;48.132;8.518;2023-05-10T00:57:51;1.38;;;0.65;;
20725;SDS011;10524;48.132;8.518;2023-05-10T01:00:18;0.82;;;0.50;;
20725;SDS011;10524;48.132;8.518;2023-05-10T01:02:47;1.25;;;0.55;;
20725;SDS011;10524;48.132;8.518;2023-05-10T01:05:13;0.52;;;0.43;;
20725;SDS011;10524;48.132;8.518;2023-05-10T01:07:39;1.10;;;0.60;;
20725;SDS011;10524;48.132;8.518;2023-05-10T01:10:05;0.90;;;0.60;;
20725;SDS011;10524;48.132;8.518;2023-05-10T01:12:33;0.90;;;0.70;;
20725;SDS011;10524;48.132;8.518;2023-05-10T01:15:01;2.50;;;0.65;;
20725;SDS011;10524;48.132;8.518;2023-05-10T01:17:28;1.48;;;0.65;;
20725;SDS011;10524;48.132;8.518;2023-05-10T01:19:54;1.40;;;0.70;;
20725;SDS011;10524;48.132;8.518;2023-05-10T01:22:32;1.27;;;0.70;;
20725;SDS011;10524;48.132;8.518;2023-05-10T01:25:19;0.73;;;0.73;;
20725;SDS011;10524;48.132;8.518;2023-05-10T01:28:13;1.30;;;0.80;;
20725;SDS011;10524;48.132;8.518;2023-05-10T01:33:31;1.48;;;0.70;;
20725;SDS011;10524;48.132;8.518;2023-05-10T01:36:20;0.80;;;0.80;;
20725;SDS011;10524;48.132;8.518;2023-05-10T01:38:57;0.70;;;0.70;;
20725;SDS011;10524;48.132;8.518;2023-05-10T01:47:06;4.88;;;0.90;;
20725;SDS011;10524;48.132;8.518;2023-05-10T01:49:43;0.70;;;0.70;;
20725;SDS011;10524;48.132;8.518;2023-05-10T01:52:16;2.17;;;0.85;;
20725;SDS011;10524;48.132;8.518;2023-05-10T01:55:00;2.38;;;0.95;;
20725;SDS011;10524;48.132;8.518;2023-05-10T01:57:31;0.68;;;0.68;;
20725;SDS011;10524;48.132;8.518;2023-05-10T02:00:01;3.10;;;1.00;;
20725;SDS011;10524;48.132;8.518;2023-05-10T02:02:28;2.22;;;0.70;;
20725;SDS011;10524;48.132;8.518;2023-05-10T02:04:58;1.15;;;0.77;;
20725;SDS011;10524;48.132;8.518;2023-05-10T02:07:25;1.67;;;0.90;;
20725;SDS011;10524;48.132;8.518;2023-05-10T02:09:53;1.00;;;0.90;;
20725;SDS011;10524;48.132;8.518;2023-05-10T02:12:20;1.23;;;0.90;;
20725;SDS011;10524;48.132;8.518;2023-05-10T02:14:48;0.95;;;0.90;;
20725;SDS011;10524;48.132;8.518;2023-05-10T02:17:17;0.98;;;0.90;;
20725;SDS011;10524;48.132;8.518;2023-05-10T02:19:44;1.58;;;1.15;;
20725;SDS011;10524;48.132;8.518;2023-05-10T02:22:12;2.95;;;1.05;;
20725;SDS011;10524;48.132;8.518;2023-05-10T02:24:38;2.25;;;1.15;;
20725;SDS011;10524;48.132;8.518;2023-05-10T02:27:05;0.90;;;0.90;;
20725;SDS011;10524;48.132;8.518;2023-05-10T02:29:32;8.20;;;1.23;;
20725;SDS011;10524;48.132;8.518;2023-05-10T02:31:59;1.50;;;1.10;;
20725;SDS011;10524;48.132;8.518;2023-05-10T02:34:26;1.10;;;1.00;;
20725;SDS011;10524;48.132;8.518;2023-05-10T02:36:53;1.08;;;0.98;;
20725;SDS011;10524;48.132;8.518;2023-05-10T02:39:20;1.60;;;1.23;;
20725;SDS011;10524;48.132;8.518;2023-05-10T02:41:48;1.20;;;1.10;;
20725;SDS011;10524;48.132;8.518;2023-05-10T02:44:15;1.40;;;1.30;;
20725;SDS011;10524;48.132;8.518;2023-05-10T02:46:43;1.75;;;1.40;;
20725;SDS011;10524;48.132;8.518;2023-05-10T02:49:09;1.70;;;1.40;;
20725;SDS011;10524;48.132;8.518;2023-05-10T02:51:36;1.63;;;1.50;;
20725;SDS011;10524;48.132;8.518;2023-05-10T02:54:28;1.60;;;1.45;;
20725;SDS011;10524;48.132;8.518;2023-05-10T02:56:57;1.20;;;1.10;;
20725;SDS011;10524;48.132;8.518;2023-05-10T02:59:27;1.52;;;1.20;;
20725;SDS011;10524;48.132;8.518;2023-05-10T03:01:53;1.20;;;1.10;;
20725;SDS011;10524;48.132;8.518;2023-05-10T03:04:19;1.95;;;1.05;;
20725;SDS011;10524;48.132;8.518;2023-05-10T03:06:44;1.25;;;1.15;;
20725;SDS011;10524;48.132;8.518;2023-05-10T03:09:10;2.35;;;1.40;;
20725;SDS011;10524;48.132;8.518;2023-05-10T03:11:45;1.67;;;1.40;;
20725;SDS011;10524;48.132;8.518;2023-05-10T03:17:23;1.33;;;1.23;;
20725;SDS011;10524;48.132;8.518;2023-05-10T03:24:53;3.25;;;1.50;;
20725;SDS011;10524;48.132;8.518;2023-05-10T03:27:21;2.88;;;1.35;;
20725;SDS011;10524;48.132;8.518;2023-05-10T03:29:48;4.20;;;1.55;;
20725;SDS011;10524;48.132;8.518;2023-05-10T03:32:16;4.18;;;1.60;;
20725;SDS011;10524;48.132;8.518;2023-05-10T03:34:42;2.13;;;1.45;;
20725;SDS011;10524;48.132;8.518;2023-05-10T03:37:10;1.63;;;1.50;;
20725;SDS011;10524;48.132;8.518;2023-05-10T03:39:36;4.35;;;1.60;;
20725;SDS011;10524;48.132;8.518;2023-05-10T03:42:02;2.70;;;1.85;;
20725;SDS011;10524;48.132;8.518;2023-05-10T03:44:27;2.58;;;1.60;;
20725;SDS011;10524;48.132;8.518;2023-05-10T03:46:53;1.70;;;1.60;;
20725;SDS011;10524;48.132;8.518;2023-05-10T03:49:19;2.28;;;1.90;;
20725;SDS011;10524;48.132;8.518;2023-05-10T03:51:44;1.73;;;1.50;;
20725;SDS011;10524;48.132;8.518;2023-05-10T03:54:10;1.42;;;1.33;;
20725;SDS011;10524;48.132;8.518;2023-05-10T03:56:36;1.70;;;1.50;;
20725;SDS011;10524;48.132;8.518;2023-05-10T03:59:01;1.90;;;1.38;;
20725;SDS011;10524;48.132;8.518;2023-05-10T04:01:32;1.60;;;1.50;;
20725;SDS011;10524;48.132;8.518;2023-05-10T04:03:58;2.92;;;1.50;;
20725;SDS011;10524;48.132;8.518;2023-05-10T04:06:24;2.95;;;1.65;;
20725;SDS011;10524;48.132;8.518;2023-05-10T04:08:49;1.67;;;1.58;;
20725;SDS011;10524;48.132;8.518;2023-05-10T04:11:15;1.70;;;1.52;;
20725;SDS011;10524;48.132;8.518;2023-05-10T04:13:41;1.92;;;1.70;;
20725;SDS011;10524;48.132;8.518;2023-05-10T04:16:08;2.53;;;1.60;;
20725;SDS011;10524;48.132;8.518;2023-05-10T04:18:34;2.00;;;1.90;;
20725;SDS011;10524;48.132;8.518;2023-05-10T04:21:00;2.15;;;1.80;;
20725;SDS011;10524;48.132;8.518;2023-05-10T04:23:26;2.42;;;1.88;;
20725;SDS011;10524;48.132;8.518;2023-05-10T04:25:52;2.33;;;1.80;;
20725;SDS011;10524;48.132;8.518;2023-05-10T04:28:23;1.95;;;1.85;;
20725;SDS011;10524;48.132;8.518;2023-05-10T04:30:49;2.85;;;2.00;;
20725;SDS011;10524;48.132;8.518;2023-05-10T04:33:14;2.15;;;1.95;;
20725;SDS011;10524;48.132;8.518;2023-05-10T04:35:40;2.20;;;2.00;;
20725;SDS011;10524;48.132;8.518;2023-05-10T04:38:06;2.67;;;2.05;;
20725;SDS011;10524;48.132;8.518;2023-05-10T04:40:31;3.55;;;2.30;;
20725;SDS011;10524;48.132;8.518;2023-05-10T04:42:57;2.60;;;2.00;;
20725;SDS011;10524;48.132;8.518;2023-05-10T04:45:23;4.05;;;2.47;;
20725;SDS011;10524;48.132;8.518;2023-05-10T04:47:48;2.70;;;2.50;;
20725;SDS011;10524;48.132;8.518;2023-05-10T04:50:14;2.30;;;2.10;;
20725;SDS011;10524;48.132;8.518;2023-05-10T04:52:40;4.38;;;2.10;;
20725;SDS011;10524;48.132;8.518;2023-05-10T04:55:06;2.95;;;2.65;;
20725;SDS011;10524;48.132;8.518;2023-05-10T04:57:34;2.85;;;2.50;;
20725;SDS011;10524;48.132;8.518;2023-05-10T05:00:00;3.33;;;2.35;;
20725;SDS011;10524;48.132;8.518;2023-05-10T05:02:25;4.95;;;2.70;;
20725;SDS011;10524;48.132;8.518;2023-05-10T05:04:51;2.80;;;2.40;;
20725;SDS011;10524;48.132;8.518;2023-05-10T05:07:17;5.40;;;2.60;;
20725;SDS011;10524;48.132;8.518;2023-05-10T05:09:42;3.00;;;2.70;;
20725;SDS011;10524;48.132;8.518;2023-05-10T05:12:08;3.00;;;2.70;;
20725;SDS011;10524;48.132;8.518;2023-05-10T05:14:38;2.83;;;2.40;;
20725;SDS011;10524;48.132;8.518;2023-05-10T05:17:05;3.22;;;2.28;;
20725;SDS011;10524;48.132;8.518;2023-05-10T05:19:30;3.63;;;2.50;;
20725;SDS011;10524;48.132;8.518;2023-05-10T05:21:56;2.30;;;2.10;;
20725;SDS011;10524;48.132;8.518;2023-05-10T05:24:22;6.82;;;2.63;;
20725;SDS011;10524;48.132;8.518;2023-05-10T05:26:48;5.20;;;2.70;;
20725;SDS011;10524;48.132;8.518;2023-05-10T05:29:13;2.33;;;2.13;;
20725;SDS011;10524;48.132;8.518;2023-05-10T05:31:39;2.40;;;2.20;;
20725;SDS011;10524;48.132;8.518;2023-05-10T05:34:05;2.38;;;2.15;;
20725;SDS011;10524;48.132;8.518;2023-05-10T05:36:30;2.63;;;2.08;;
20725;SDS011;10524;48.132;8.518;2023-05-10T05:38:57;2.42;;;2.00;;
20725;SDS011;10524;48.132;8.518;2023-05-10T05:41:23;2.50;;;1.85;;
20725;SDS011;10524;48.132;8.518;2023-05-10T05:43:49;2.00;;;1.50;;
20725;SDS011;10524;48.132;8.518;2023-05-10T05:46:15;1.88;;;1.75;;
20725;SDS011;10524;48.132;8.518;2023-05-10T05:48:40;4.22;;;1.65;;
20725;SDS011;10524;48.132;8.518;2023-05-10T05:51:06;1.70;;;1.60;;
20725;SDS011;10524;48.132;8.518;2023-05-10T05:53:32;2.65;;;1.60;;
20725;SDS011;10524;48.132;8.518;2023-05-10T05:55:58;1.60;;;1.50;;
20725;SDS011;10524;48.132;8.518;2023-05-10T05:58:24;3.03;;;1.60;;
20725;SDS011;10524;48.132;8.518;2023-05-10T06:00:50;3.65;;;2.20;;
20725;SDS011;10524;48.132;8.518;2023-05-10T06:03:17;2.47;;;1.85;;
20725;SDS011;10524;48.132;8.518;2023-05-10T06:05:43;2.83;;;1.90;;
20725;SDS011;10524;48.132;8.518;2023-05-10T06:08:09;4.40;;;2.00;;
20725;SDS011;10524;48.132;8.518;2023-05-10T06:10:35;3.83;;;1.90;;
20725;SDS011;10524;48.132;8.518;2023-05-10T06:13:01;2.03;;;1.73;;
20725;SDS011;10524;48.132;8.518;2023-05-10T06:15:27;4.15;;;1.70;;
20725;SDS011;10524;48.132;8.518;2023-05-10T06:17:52;1.85;;;1.58;;
20725;SDS011;10524;48.132;8.518;2023-05-10T06:20:18;3.67;;;1.70;;
20725;SDS011;10524;48.132;8.518;2023-05-10T06:22:44;3.33;;;1.63;;
20725;SDS011;10524;48.132;8.518;2023-05-10T06:25:09;3.95;;;1.70;;
20725;SDS011;10524;48.132;8.518;2023-05-10T06:27:36;3.95;;;1.48;;
20725;SDS011;10524;48.132;8.518;2023-05-10T06:30:02;1.58;;;1.25;;
20725;SDS011;10524;48.132;8.518;2023-05-10T06:32:28;1.90;;;1.20;;
20725;SDS011;10524;48.132;8.518;2023-05-10T06:34:53;1.88;;;1.38;;
20725;SDS011;10524;48.132;8.518;2023-05-10T06:37:19;2.38;;;1.30;;
20725;SDS011;10524;48.132;8.518;2023-05-10T06:39:45;3.17;;;1.73;;
20725;SDS011;10524;48.132;8.518;2023-05-10T06:42:10;1.60;;;1.10;;
20725;SDS011;10524;48.132;8.518;2023-05-10T06:44:36;2.35;;;1.10;;
20725;SDS011;10524;48.132;8.518;2023-05-10T06:47:02;1.67;;;1.10;;
20725;SDS011;10524;48.132;8.518;2023-05-10T06:49:28;3.00;;;1.20;;
20725;SDS011;10524;48.132;8.518;2023-05-10T06:51:54;0.98;;;0.90;;
20725;SDS011;10524;48.132;8.518;2023-05-10T06:54:21;3.10;;;1.00;;
20725;SDS011;10524;48.132;8.518;2023-05-10T06:56:46;2.03;;;1.30;;
20725;SDS011;10524;48.132;8.518;2023-05-10T06:59:12;3.67;;;1.38;;
20725;SDS011;10524;48.132;8.518;2023-05-10T07:01:38;1.77;;;1.10;;
20725;SDS011;10524;48.132;8.518;2023-05-10T07:04:04;1.38;;;1.10;;
20725;SDS011;10524;48.132;8.518;2023-05-10T07:06:30;1.40;;;1.20;;
20725;SDS011;10524;48.132;8.518;2023-05-10T07:08:56;1.40;;;1.20;;
20725;SDS011;10524;48.132;8.518;2023-05-10T07:11:22;1.00;;;0.90;;
20725;SDS011;10524;48.132;8.518;2023-05-10T07:13:47;1.80;;;1.00;;
20725;SDS011;10524;48.132;8.518;2023-05-10T07:16:13;4.10;;;1.02;;
20725;SDS011;10524;48.132;8.518;2023-05-10T07:18:39;3.03;;;1.30;;
20725;SDS011;10524;48.132;8.518;2023-05-10T07:21:04;4.20;;;1.20;;
20725;SDS011;10524;48.132;8.518;2023-05-10T07:23:30;2.92;;;1.35;;
20725;SDS011;10524;48.132;8.518;2023-05-10T07:25:56;3.38;;;1.35;;
20725;SDS011;10524;48.132;8.518;2023-05-10T07:28:22;1.70;;;1.10;;
20725;SDS011;10524;48.132;8.518;2023-05-10T07:30:49;1.83;;;1.30;;
20725;SDS011;10524;48.132;8.518;2023-05-10T07:33:15;1.40;;;1.00;;
20725;SDS011;10524;48.132;8.518;2023-05-10T07:35:40;1.85;;;1.00;;
20725;SDS011;10524;48.132;8.518;2023-05-10T07:38:07;1.88;;;1.20;;
20725;SDS011;10524;48.132;8.518;2023-05-10T07:40:32;1.23;;;1.00;;
20725;SDS011;10524;48.132;8.518;2023-05-10T07:42:58;1.20;;;1.00;;
20725;SDS011;10524;48.132;8.518;2023-05-10T07:45:25;1.38;;;0.73;;
20725;SDS011;10524;48.132;8.518;2023-05-10T07:47:51;0.60;;;0.60;;
20725;SDS011;10524;48.132;8.518;2023-05-10T07:50:17;1.88;;;0.80;;
20725;SDS011;10524;48.132;8.518;2023-05-10T07:52:42;0.80;;;0.80;;
20725;SDS011;10524;48.132;8.518;2023-05-10T07:55:08;1.42;;;0.93;;
20725;SDS011;10524;48.132;8.518;2023-05-10T07:57:34;5.30;;;3.28;;
20725;SDS011;10524;48.132;8.518;2023-05-10T08:00:00;3.22;;;1.23;;
20725;SDS011;10524;48.132;8.518;2023-05-10T08:02:25;1.90;;;1.63;;
20725;SDS011;10524;48.132;8.518;2023-05-10T08:04:51;3.08;;;0.75;;
20725;SDS011;10524;48.132;8.518;2023-05-10T08:07:17;5.53;;;4.15;;
20725;SDS011;10524;48.132;8.518;2023-05-10T08:09:43;5.05;;;3.05;;
20725;SDS011;10524;48.132;8.518;2023-05-10T08:12:09;3.70;;;2.25;;
20725;SDS011;10524;48.132;8.518;2023-05-10T08:14:34;2.67;;;0.98;;
20725;SDS011;10524;48.132;8.518;2023-05-10T08:17:01;2.65;;;1.60;;
20725;SDS011;10524;48.132;8.518;2023-05-10T08:19:28;1.23;;;0.80;;
20725;SDS011;10524;48.132;8.518;2023-05-10T08:21:54;0.50;;;0.40;;
20725;SDS011;10524;48.132;8.518;2023-05-10T08:24:20;0.50;;;0.40;;
20725;SDS011;10524;48.132;8.518;2023-05-10T08:26:46;0.80;;;0.38;;
20725;SDS011;10524;48.132;8.518;2023-05-10T08:29:13;0.30;;;0.30;;
20725;SDS011;10524;48.132;8.518;2023-05-10T08:31:39;0.45;;;0.30;;
20725;SDS011;10524;48.132;8.518;2023-05-10T08:34:05;0.47;;;0.40;;
20725;SDS011;10524;48.132;8.518;2023-05-10T08:36:31;0.40;;;0.40;;
20725;SDS011;10524;48.132;8.518;2023-05-10T08:38:57;1.65;;;0.57;;
20725;SDS011;10524;48.132;8.518;2023-05-10T08:41:23;0.60;;;0.40;;
20725;SDS011;10524;48.132;8.518;2023-05-10T08:43:51;1.20;;;0.60;;
20725;SDS011;10524;48.132;8.518;2023-05-10T08:46:20;1.02;;;0.50;;
20725;SDS011;10524;48.132;8.518;2023-05-10T08:48:49;1.05;;;0.50;;
20725;SDS011;10524;48.132;8.518;2023-05-10T08:51:19;0.60;;;0.50;;
20725;SDS011;10524;48.132;8.518;2023-05-10T08:53:48;1.17;;;0.40;;
20725;SDS011;10524;48.132;8.518;2023-05-10T08:56:15;2.00;;;0.40;;
20725;SDS011;10524;48.132;8.518;2023-05-10T08:58:40;1.67;;;0.40;;
20725;SDS011;10524;48.132;8.518;2023-05-10T09:01:07;0.60;;;0.43;;
20725;SDS011;10524;48.132;8.518;2023-05-10T09:03:34;0.82;;;0.50;;
20725;SDS011;10524;48.132;8.518;2023-05-10T09:06:00;0.60;;;0.50;;
20725;SDS011;10524;48.132;8.518;2023-05-10T09:08:26;1.23;;;0.50;;
20725;SDS011;10524;48.132;8.518;2023-05-10T09:10:53;0.60;;;0.43;;
20725;SDS011;10524;48.132;8.518;2023-05-10T09:13:22;0.57;;;0.40;;
20725;SDS011;10524;48.132;8.518;2023-05-10T09:15:49;0.40;;;0.40;;
20725;SDS011;10524;48.132;8.518;2023-05-10T09:18:16;1.52;;;0.40;;
20725;SDS011;10524;48.132;8.518;2023-05-10T09:20:41;1.60;;;0.60;;
20725;SDS011;10524;48.132;8.518;2023-05-10T09:23:07;2.80;;;0.50;;
20725;SDS011;10524;48.132;8.518;2023-05-10T09:25:33;0.90;;;0.30;;
20725;SDS011;10524;48.132;8.518;2023-05-10T09:27:59;1.92;;;0.50;;
20725;SDS011;10524;48.132;8.518;2023-05-10T09:30:26;1.85;;;0.50;;
20725;SDS011;10524;48.132;8.518;2023-05-10T09:32:53;2.58;;;0.50;;
20725;SDS011;10524;48.132;8.518;2023-05-10T09:35:23;2.17;;;1.20;;
20725;SDS011;10524;48.132;8.518;2023-05-10T09:37:51;3.00;;;1.17;;
20725;SDS011;10524;48.132;8.518;2023-05-10T09:40:22;2.30;;;0.65;;
20725;SDS011;10524;48.132;8.518;2023-05-10T09:42:53;1.48;;;0.77;;
20725;SDS011;10524;48.132;8.518;2023-05-10T09:45:26;1.08;;;0.70;;
20725;SDS011;10524;48.132;8.518;2023-05-10T09:47:53;1.60;;;0.60;;
20725;SDS011;10524;48.132;8.518;2023-05-10T09:50:20;1.02;;;0.65;;
20725;SDS011;10524;48.132;8.518;2023-05-10T09:55:16;1.52;;;0.70;;
20725;SDS011;10524;48.132;8.518;2023-05-10T09:57:44;1.40;;;0.60;;
20725;SDS011;10524;48.132;8.518;2023-05-10T10:00:15;3.33;;;0.80;;
20725;SDS011;10524;48.132;8.518;2023-05-10T10:02:46;1.45;;;0.75;;
20725;SDS011;10524;48.132;8.518;2023-05-10T10:05:19;2.72;;;0.70;;
20725;SDS011;10524;48.132;8.518;2023-05-10T10:07:46;1.50;;;0.60;;
20725;SDS011;10524;48.132;8.518;2023-05-10T10:10:12;1.13;;;0.60;;
20725;SDS011;10524;48.132;8.518;2023-05-10T10:12:38;1.42;;;0.50;;
20725;SDS011;10524;48.132;8.518;2023-05-10T10:15:06;1.40;;;0.50;;
20725;SDS011;10524;48.132;8.518;2023-05-10T10:17:33;2.60;;;0.80;;
20725;SDS011;10524;48.132;8.518;2023-05-10T10:20:02;0.80;;;0.70;;
20725;SDS011;10524;48.132;8.518;2023-05-10T10:22:28;1.02;;;0.70;;
20725;SDS011;10524;48.132;8.518;2023-05-10T10:24:54;1.92;;;0.80;;
20725;SDS011;10524;48.132;8.518;2023-05-10T10:29:55;1.27;;;0.80;;
20725;SDS011;10524;48.132;8.518;2023-05-10T10:35:13;1.65;;;0.50;;
20725;SDS011;10524;48.132;8.518;2023-05-10T10:37:43;1.50;;;0.70;;
20725;SDS011;10524;48.132;8.518;2023-05-10T10:40:23;1.10;;;0.60;;
20725;SDS011;10524;48.132;8.518;2023-05-10T10:42:50;1.95;;;0.70;;
20725;SDS011;10524;48.132;8.518;2023-05-10T10:45:16;3.33;;;0.90;;
20725;SDS011;10524;48.132;8.518;2023-05-10T10:47:42;1.52;;;1.00;;
20725;SDS011;10524;48.132;8.518;2023-05-10T10:50:10;1.55;;;0.80;;
20725;SDS011;10524;48.132;8.518;2023-05-10T10:52:40;1.30;;;0.85;;
20725;SDS011;10524;48.132;8.518;2023-05-10T10:57:42;2.73;;;1.07;;
20725;SDS011;10524;48.132;8.518;2023-05-10T11:00:19;3.00;;;1.20;;
20725;SDS011;10524;48.132;8.518;2023-05-10T11:05:34;1.85;;;1.17;;
20725;SDS011;10524;48.132;8.518;2023-05-10T11:13:17;3.60;;;1.13;;
20725;SDS011;10524;48.132;8.518;2023-05-10T11:16:09;1.85;;;0.90;;
20725;SDS011;10524;48.132;8.518;2023-05-10T11:18:52;1.13;;;0.93;;
20725;SDS011;10524;48.132;8.518;2023-05-10T11:21:33;1.92;;;0.90;;
20725;SDS011;10524;48.132;8.518;2023-05-10T11:24:00;2.20;;;0.80;;
20725;SDS011;10524;48.132;8.518;2023-05-10T11:26:31;3.15;;;1.20;;
20725;SDS011;10524;48.132;8.518;2023-05-10T11:28:59;3.42;;;0.90;;
20725;SDS011;10524;48.132;8.518;2023-05-10T11:31:27;2.72;;;0.90;;
20725;SDS011;10524;48.132;8.518;2023-05-10T11:33:54;2.13;;;0.90;;
20725;SDS011;10524;48.132;8.518;2023-05-10T11:36:22;2.70;;;1.00;;
20725;SDS011;10524;48.132;8.518;2023-05-10T11:38:51;3.03;;;0.80;;
20725;SDS011;10524;48.132;8.518;2023-05-10T11:41:18;2.33;;;0.80;;
20725;SDS011;10524;48.132;8.518;2023-05-10T11:43:47;4.28;;;0.80;;
20725;SDS011;10524;48.132;8.518;2023-05-10T11:46:14;2.25;;;0.88;;
20725;SDS011;10524;48.132;8.518;2023-05-10T11:48:42;2.38;;;0.80;;
20725;SDS011;10524;48.132;8.518;2023-05-10T11:51:08;3.03;;;0.90;;
20725;SDS011;10524;48.132;8.518;2023-05-10T11:53:35;2.10;;;0.90;;
20725;SDS011;10524;48.132;8.518;2023-05-10T11:56:07;1.33;;;0.82;;
20725;SDS011;10524;48.132;8.518;2023-05-10T11:58:34;1.50;;;0.68;;
20725;SDS011;10524;48.132;8.518;2023-05-10T12:01:00;1.02;;;0.70;;
20725;SDS011;10524;48.132;8.518;2023-05-10T12:03:27;1.83;;;0.60;;
20725;SDS011;10524;48.132;8.518;2023-05-10T12:05:54;2.50;;;0.77;;
20725;SDS011;10524;48.132;8.518;2023-05-10T12:08:24;1.50;;;0.60;;
20725;SDS011;10524;48.132;8.518;2023-05-10T12:10:52;3.63;;;1.00;;
20725;SDS011;10524;48.132;8.518;2023-05-10T12:13:40;2.22;;;0.70;;
20725;SDS011;10524;48.132;8.518;2023-05-10T12:16:19;2.92;;;1.00;;
20725;SDS011;10524;48.132;8.518;2023-05-10T12:18:49;1.17;;;0.60;;
20725;SDS011;10524;48.132;8.518;2023-05-10T12:21:22;2.25;;;0.70;;
20725;SDS011;10524;48.132;8.518;2023-05-10T12:23:51;4.22;;;1.00;;
20725;SDS011;10524;48.132;8.518;2023-05-10T12:26:22;2.80;;;0.90;;
20725;SDS011;10524;48.132;8.518;2023-05-10T12:28:49;2.95;;;1.00;;
20725;SDS011;10524;48.132;8.518;2023-05-10T12:31:15;2.05;;;0.90;;
20725;SDS011;10524;48.132;8.518;2023-05-10T12:33:44;1.40;;;0.90;;
20725;SDS011;10524;48.132;8.518;2023-05-10T12:36:12;3.13;;;1.15;;
20725;SDS011;10524;48.132;8.518;2023-05-10T12:38:39;2.88;;;0.90;;
20725;SDS011;10524;48.132;8.518;2023-05-10T12:41:08;1.52;;;0.80;;
20725;SDS011;10524;48.132;8.518;2023-05-10T12:43:35;3.00;;;0.80;;
20725;SDS011;10524;48.132;8.518;2023-05-10T12:46:05;1.27;;;0.90;;
20725;SDS011;10524;48.132;8.518;2023-05-10T12:48:35;1.55;;;0.70;;
20725;SDS011;10524;48.132;8.518;2023-05-10T12:51:02;1.73;;;0.80;;
20725;SDS011;10524;48.132;8.518;2023-05-10T12:53:29;2.47;;;0.90;;
20725;SDS011;10524;48.132;8.518;2023-05-10T12:55:55;4.03;;;0.73;;
20725;SDS011;10524;48.132;8.518;2023-05-10T12:58:20;1.95;;;0.80;;
20725;SDS011;10524;48.132;8.518;2023-05-10T13:00:46;3.88;;;0.85;;
20725;SDS011;10524;48.132;8.518;2023-05-10T13:03:12;2.22;;;0.70;;
20725;SDS011;10524;48.132;8.518;2023-05-10T13:05:38;1.40;;;0.68;;
20725;SDS011;10524;48.132;8.518;2023-05-10T13:08:04;2.53;;;0.90;;
20725;SDS011;10524;48.132;8.518;2023-05-10T13:10:30;2.38;;;0.98;;
20725;SDS011;10524;48.132;8.518;2023-05-10T13:12:56;1.27;;;0.70;;
20725;SDS011;10524;48.132;8.518;2023-05-10T13:15:23;3.67;;;1.15;;
20725;SDS011;10524;48.132;8.518;2023-05-10T13:17:48;6.75;;;1.00;;
20725;SDS011;10524;48.132;8.518;2023-05-10T13:20:14;2.08;;;0.80;;
20725;SDS011;10524;48.132;8.518;2023-05-10T13:22:41;1.77;;;0.90;;
20725;SDS011;10524;48.132;8.518;2023-05-10T13:25:08;3.30;;;0.95;;
20725;SDS011;10524;48.132;8.518;2023-05-10T13:27:34;1.27;;;0.80;;
20725;SDS011;10524;48.132;8.518;2023-05-10T13:30:00;2.53;;;0.80;;
20725;SDS011;10524;48.132;8.518;2023-05-10T13:32:28;2.65;;;0.90;;
20725;SDS011;10524;48.132;8.518;2023-05-10T13:34:54;3.83;;;0.82;;
20725;SDS011;10524;48.132;8.518;2023-05-10T13:37:20;1.73;;;0.88;;
20725;SDS011;10524;48.132;8.518;2023-05-10T13:39:46;3.67;;;1.10;;
20725;SDS011;10524;48.132;8.518;2023-05-10T13:42:12;2.08;;;0.85;;
20725;SDS011;10524;48.132;8.518;2023-05-10T13:44:38;2.33;;;0.75;;
20725;SDS011;10524;48.132;8.518;2023-05-10T13:47:04;1.83;;;0.90;;
20725;SDS011;10524;48.132;8.518;2023-05-10T13:49:29;1.17;;;0.82;;
20725;SDS011;10524;48.132;8.518;2023-05-10T13:51:55;2.22;;;0.88;;
20725;SDS011;10524;48.132;8.518;2023-05-10T13:54:21;1.90;;;0.77;;
20725;SDS011;10524;48.132;8.518;2023-05-10T13:56:48;1.17;;;0.70;;
20725;SDS011;10524;48.132;8.518;2023-05-10T13:59:13;2.28;;;0.80;;
20725;SDS011;10524;48.132;8.518;2023-05-10T14:01:40;1.30;;;0.70;;
20725;SDS011;10524;48.132;8.518;2023-05-10T14:04:06;4.32;;;0.98;;
20725;SDS011;10524;48.132;8.518;2023-05-10T14:06:35;3.70;;;0.90;;
20725;SDS011;10524;48.132;8.518;2023-05-10T14:09:03;0.93;;;0.60;;
20725;SDS011;10524;48.132;8.518;2023-05-10T14:11:29;2.15;;;0.70;;
20725;SDS011;10524;48.132;8.518;2023-05-10T14:13:54;2.28;;;0.50;;
20725;SDS011;10524;48.132;8.518;2023-05-10T14:16:20;0.98;;;0.52;;
20725;SDS011;10524;48.132;8.518;2023-05-10T14:18:46;1.67;;;0.57;;
20725;SDS011;10524;48.132;8.518;2023-05-10T14:21:12;1.20;;;0.60;;
20725;SDS011;10524;48.132;8.518;2023-05-10T14:23:38;1.25;;;0.93;;
20725;SDS011;10524;48.132;8.518;2023-05-10T14:26:04;0.88;;;0.80;;
20725;SDS011;10524;48.132;8.518;2023-05-10T14:28:30;0.85;;;0.50;;
20725;SDS011;10524;48.132;8.518;2023-05-10T14:30:55;1.52;;;0.65;;
20725;SDS011;10524;48.132;8.518;2023-05-10T14:33:21;0.73;;;0.50;;
20725;SDS011;10524;48.132;8.518;2023-05-10T14:35:48;1.02;;;0.70;;
20725;SDS011;10524;48.132;8.518;2023-05-10T14:38:14;1.42;;;0.52;;
20725;SDS011;10524;48.132;8.518;2023-05-10T14:40:40;1.35;;;0.60;;
20725;SDS011;10524;48.132;8.518;2023-05-10T14:43:06;1.50;;;0.57;;
20725;SDS011;10524;48.132;8.518;2023-05-10T14:45:31;1.95;;;0.52;;
20725;SDS011;10524;48.132;8.518;2023-05-10T14:47:57;1.95;;;0.57;;
20725;SDS011;10524;48.132;8.518;2023-05-10T14:50:23;0.80;;;0.60;;
20725;SDS011;10524;48.132;8.518;2023-05-10T14:52:49;2.08;;;0.77;;
20725;SDS011;10524;48.132;8.518;2023-05-10T14:55:15;1.40;;;0.55;;
20725;SDS011;10524;48.132;8.518;2023-05-10T14:57:41;4.10;;;0.75;;
20725;SDS011;10524;48.132;8.518;2023-05-10T15:00:07;1.48;;;0.60;;
20725;SDS011;10524;48.132;8.518;2023-05-10T15:02:34;1.52;;;0.65;;
20725;SDS011;10524;48.132;8.518;2023-05-10T15:05:00;1.52;;;0.70;;
20725;SDS011;10524;48.132;8.518;2023-05-10T15:07:25;2.80;;;0.60;;
20725;SDS011;10524;48.132;8.518;2023-05-10T15:09:51;1.75;;;0.60;;
20725;SDS011;10524;48.132;8.518;2023-05-10T15:12:17;2.47;;;1.25;;
20725;SDS011;10524;48.132;8.518;2023-05-10T15:14:43;1.67;;;0.80;;
20725;SDS011;10524;48.132;8.518;2023-05-10T15:17:09;1.60;;;0.60;;
20725;SDS011;10524;48.132;8.518;2023-05-10T15:19:35;0.80;;;0.60;;
20725;SDS011;10524;48.132;8.518;2023-05-10T15:22:01;1.17;;;1.00;;
20725;SDS011;10524;48.132;8.518;2023-05-10T15:24:27;3.65;;;1.73;;